Time;durP1;ratioP1;P1;durP2;ratioP2;P2;SDS_P1;SDS_P2;PMS_P1;PMS_P2;Temp;Humidity;BMP_temperature;BMP_pressure;BME280_temperature;BME280_humidity;BME280_pressure;Samples;Min_cycle;Max_cycle;Signal;HPM_P1;HPM_P2
2023/12/12 00:01:37;;;;;;;33.90;17.23;;;2.20;99.90;;;;;;5032868;28;20033;-74
2023/12/12 00:04:03;;;;;;;26.60;15.18;;;2.20;99.90;;;;;;5047878;28;20028;-77
2023/12/12 00:06:29;;;;;;;29.65;17.70;;;2.10;99.90;;;;;;5032721;28;20018;-76
2023/12/12 00:08:55;;;;;;;25.13;14.15;;;2.10;99.90;;;;;;5032441;28;20033;-78
2023/12/12 00:11:21;;;;;;;32.58;16.42;;;2.10;99.90;;;;;;5032586;28;20018;-78
2023/12/12 00:13:46;;;;;;;41.28;22.38;;;2.10;99.90;;;;;;5032508;28;20467;-76
2023/12/12 00:16:12;;;;;;;35.83;17.17;;;2.10;99.90;;;;;;5032729;28;20025;-78
2023/12/12 00:18:38;;;;;;;31.73;17.27;;;2.10;99.90;;;;;;5032337;28;20044;-78
2023/12/12 00:21:06;;;;;;;33.05;16.67;;;2.10;99.90;;;;;;5031308;28;20079;-75
2023/12/12 00:23:31;;;;;;;32.05;15.95;;;2.10;99.90;;;;;;5032367;28;20026;-74
2023/12/12 00:25:58;;;;;;;36.85;16.60;;;2.00;99.90;;;;;;5032622;28;20516;-75
2023/12/12 00:28:24;;;;;;;44.30;18.67;;;2.00;99.90;;;;;;5032268;28;20104;-77
2023/12/12 00:30:50;;;;;;;32.70;17.83;;;2.00;99.90;;;;;;5031966;28;20037;-75
2023/12/12 00:33:16;;;;;;;37.15;19.50;;;2.00;99.90;;;;;;5032136;28;20057;-74
2023/12/12 00:35:41;;;;;;;34.83;18.70;;;2.00;99.90;;;;;;5032273;28;20093;-74
2023/12/12 00:38:07;;;;;;;42.75;21.85;;;2.00;99.90;;;;;;5032341;28;20033;-77
2023/12/12 00:40:37;;;;;;;59.65;32.40;;;2.00;99.90;;;;;;5032531;28;20513;-77
2023/12/12 00:43:03;;;;;;;53.25;22.05;;;2.00;99.90;;;;;;5032378;28;20045;-75
2023/12/12 00:45:29;;;;;;;38.38;21.23;;;1.90;99.90;;;;;;5032122;28;20060;-75
2023/12/12 00:47:54;;;;;;;39.45;19.75;;;1.90;99.90;;;;;;5032118;28;20394;-75
2023/12/12 00:50:20;;;;;;;38.80;17.98;;;1.90;99.90;;;;;;5032575;28;20032;-74
2023/12/12 00:52:45;;;;;;;49.45;20.65;;;1.90;99.90;;;;;;5032033;28;20495;-75
2023/12/12 00:55:11;;;;;;;32.28;17.10;;;1.90;99.90;;;;;;5032129;28;20032;-74
2023/12/12 00:57:37;;;;;;;43.40;18.90;;;1.90;99.90;;;;;;5032154;28;20433;-74
2023/12/12 01:00:03;;;;;;;35.35;19.40;;;1.90;99.90;;;;;;5032248;28;20479;-74
2023/12/12 01:02:29;;;;;;;38.13;20.10;;;1.80;99.90;;;;;;5029818;28;20014;-76
2023/12/12 01:04:55;;;;;;;32.58;20.50;;;1.90;99.90;;;;;;5031099;28;20475;-74
2023/12/12 01:07:20;;;;;;;49.40;26.83;;;1.90;99.90;;;;;;5032949;28;20144;-77
2023/12/12 01:09:46;;;;;;;44.65;23.40;;;1.90;99.90;;;;;;5033895;28;20034;-75
2023/12/12 01:12:12;;;;;;;42.80;21.33;;;1.90;99.90;;;;;;5051172;28;20041;-75
2023/12/12 01:14:37;;;;;;;44.95;22.42;;;1.90;99.90;;;;;;5035850;28;20736;-75
2023/12/12 01:17:03;;;;;;;39.92;21.38;;;1.80;99.90;;;;;;5033308;28;20057;-75
2023/12/12 01:19:30;;;;;;;40.13;20.48;;;1.80;99.90;;;;;;5026289;28;20026;-77
2023/12/12 01:21:56;;;;;;;30.70;18.77;;;1.80;99.90;;;;;;5031820;28;20100;-78
2023/12/12 01:24:21;;;;;;;39.72;20.65;;;1.80;99.90;;;;;;5035703;28;20104;-78
2023/12/12 01:26:47;;;;;;;36.47;18.90;;;1.80;99.90;;;;;;5050923;28;20386;-75
2023/12/12 01:29:16;;;;;;;36.13;18.25;;;1.80;99.90;;;;;;5035529;28;20475;-74
2023/12/12 01:31:43;;;;;;;34.53;18.80;;;1.80;99.90;;;;;;5035022;28;20053;-74
2023/12/12 01:34:09;;;;;;;49.53;29.80;;;1.80;99.90;;;;;;5035557;28;20542;-74
2023/12/12 01:36:34;;;;;;;34.47;18.70;;;1.80;99.90;;;;;;5033658;28;20018;-75
2023/12/12 01:39:00;;;;;;;36.95;19.08;;;1.80;99.90;;;;;;5035577;28;20025;-75
2023/12/12 01:41:25;;;;;;;33.95;18.15;;;1.80;99.90;;;;;;5035304;28;20025;-74
2023/12/12 01:43:51;;;;;;;30.10;17.98;;;1.70;99.90;;;;;;5035406;28;20021;-78
2023/12/12 01:46:18;;;;;;;34.65;17.83;;;1.70;99.90;;;;;;5033749;28;20033;-75
2023/12/12 01:48:44;;;;;;;36.45;18.08;;;1.70;99.90;;;;;;5035143;28;20026;-74
2023/12/12 01:51:10;;;;;;;34.67;17.48;;;1.80;99.90;;;;;;5035081;28;20056;-77
2023/12/12 01:53:43;;;;;;;35.67;19.02;;;1.70;99.90;;;;;;5050568;28;20081;-77
2023/12/12 01:56:11;;;;;;;35.60;17.13;;;1.70;99.90;;;;;;5035050;28;20044;-78
2023/12/12 01:58:40;;;;;;;43.42;25.70;;;1.70;99.90;;;;;;5050489;28;20025;-77
2023/12/12 02:01:05;;;;;;;48.15;23.67;;;1.70;99.90;;;;;;5034759;28;20538;-78
2023/12/12 02:03:34;;;;;;;39.90;17.60;;;1.70;99.90;;;;;;5034728;28;20220;-78
2023/12/12 02:06:01;;;;;;;37.22;16.77;;;1.70;99.90;;;;;;5034800;28;20096;-75
2023/12/12 02:08:28;;;;;;;33.42;18.48;;;1.70;99.90;;;;;;5031641;28;20010;-78
2023/12/12 02:10:54;;;;;;;29.75;16.42;;;1.70;99.90;;;;;;5033210;28;20075;-77
2023/12/12 02:13:20;;;;;;;33.00;16.20;;;1.70;99.90;;;;;;5029978;28;20479;-74
2023/12/12 02:15:47;;;;;;;28.42;14.80;;;1.70;99.90;;;;;;5025938;28;20029;-78
2023/12/12 02:18:16;;;;;;;30.50;16.35;;;1.70;99.90;;;;;;5034442;28;20370;-77
2023/12/12 02:20:42;;;;;;;29.55;15.93;;;1.70;99.90;;;;;;5034447;28;20021;-78
2023/12/12 02:23:08;;;;;;;32.20;17.17;;;1.70;99.90;;;;;;5034723;28;20025;-75
2023/12/12 02:25:34;;;;;;;48.35;25.20;;;1.70;99.90;;;;;;5034614;28;20419;-76
2023/12/12 02:28:00;;;;;;;35.40;17.83;;;1.70;99.90;;;;;;5021451;28;20026;-75
2023/12/12 02:30:26;;;;;;;36.30;18.00;;;1.70;99.90;;;;;;5034240;28;20029;-75
2023/12/12 02:32:52;;;;;;;34.05;17.88;;;1.60;99.90;;;;;;5034382;28;20525;-75
2023/12/12 02:35:17;;;;;;;32.97;18.05;;;1.60;99.90;;;;;;5034304;28;20390;-74
2023/12/12 02:37:43;;;;;;;37.88;17.85;;;1.60;99.90;;;;;;5034500;28;20097;-77
2023/12/12 02:40:09;;;;;;;33.22;20.58;;;1.60;99.90;;;;;;5025411;28;20119;-78
2023/12/12 02:42:35;;;;;;;39.33;21.33;;;1.60;99.90;;;;;;5029680;28;20024;-78
2023/12/12 02:45:00;;;;;;;44.05;22.13;;;1.60;99.90;;;;;;5027550;28;20022;-74
2023/12/12 02:47:26;;;;;;;50.20;25.90;;;1.60;99.90;;;;;;5027173;28;20025;-75
2023/12/12 02:49:52;;;;;;;67.63;37.38;;;1.60;99.90;;;;;;5049296;28;20108;-75
2023/12/12 02:52:17;;;;;;;47.20;25.42;;;1.60;99.90;;;;;;5033905;28;20108;-75
2023/12/12 02:54:43;;;;;;;43.83;22.33;;;1.60;99.90;;;;;;5049222;28;20024;-78
2023/12/12 02:57:09;;;;;;;51.15;25.38;;;1.60;99.90;;;;;;5023604;28;20029;-78
2023/12/12 02:59:34;;;;;;;43.75;24.02;;;1.60;99.90;;;;;;5033821;28;20411;-78
2023/12/12 03:02:00;;;;;;;47.88;25.65;;;1.60;99.90;;;;;;5029455;28;20095;-78
2023/12/12 03:04:26;;;;;;;49.42;24.35;;;1.50;99.90;;;;;;5048837;28;20398;-75
2023/12/12 03:06:51;;;;;;;44.83;22.52;;;1.50;99.90;;;;;;5033646;28;20704;-75
2023/12/12 03:09:17;;;;;;;38.22;20.65;;;1.50;99.90;;;;;;5049050;28;20487;-75
2023/12/12 03:11:44;;;;;;;45.05;22.63;;;1.60;99.90;;;;;;5033443;28;20534;-76
2023/12/12 03:14:10;;;;;;;52.40;31.20;;;1.60;99.90;;;;;;5022017;28;20017;-77
2023/12/12 03:16:36;;;;;;;39.85;21.40;;;1.60;99.90;;;;;;5029046;28;20032;-77
2023/12/12 03:19:01;;;;;;;37.22;20.33;;;1.50;99.90;;;;;;5047434;28;20479;-78
2023/12/12 03:21:27;;;;;;;37.08;20.63;;;1.50;99.90;;;;;;5032047;28;20024;-75
2023/12/12 03:23:53;;;;;;;39.00;21.15;;;1.60;99.90;;;;;;5048731;28;20021;-75
2023/12/12 03:26:18;;;;;;;38.92;20.60;;;1.60;99.90;;;;;;5033342;28;20026;-76
2023/12/12 03:28:44;;;;;;;37.42;22.20;;;1.60;99.90;;;;;;5033392;28;20025;-78
2023/12/12 03:31:10;;;;;;;38.05;20.13;;;1.60;99.90;;;;;;5031652;28;20028;-78
2023/12/12 03:33:35;;;;;;;40.25;21.77;;;1.60;99.90;;;;;;5048358;28;20049;-75
2023/12/12 03:36:06;;;;;;;41.75;23.90;;;1.60;99.90;;;;;;5033245;28;20485;-76
2023/12/12 03:38:32;;;;;;;36.42;20.92;;;1.60;99.90;;;;;;5033164;28;20063;-76
2023/12/12 03:40:57;;;;;;;38.00;21.42;;;1.50;99.90;;;;;;5033266;28;20100;-76
2023/12/12 03:43:24;;;;;;;43.25;20.90;;;1.60;99.90;;;;;;5028394;28;20072;-77
2023/12/12 03:45:49;;;;;;;32.70;20.13;;;1.60;99.90;;;;;;5029993;28;20101;-77
2023/12/12 03:48:15;;;;;;;40.42;22.13;;;1.60;99.90;;;;;;5028573;28;20176;-77
2023/12/12 03:50:41;;;;;;;35.78;23.27;;;1.60;99.90;;;;;;5029751;28;20028;-78
2023/12/12 03:53:06;;;;;;;38.00;20.35;;;1.60;99.90;;;;;;5048221;28;20032;-78
2023/12/12 03:55:32;;;;;;;38.05;19.33;;;1.70;99.90;;;;;;5028575;28;20022;-78
2023/12/12 03:57:58;;;;;;;43.03;23.05;;;1.70;99.90;;;;;;5030990;28;20383;-77
2023/12/12 04:00:23;;;;;;;31.67;18.02;;;1.70;99.90;;;;;;5028059;28;20483;-77
2023/12/12 04:02:50;;;;;;;31.35;17.75;;;1.80;99.90;;;;;;5047118;28;20022;-75
2023/12/12 04:05:15;;;;;;;32.28;16.80;;;1.80;99.90;;;;;;5032925;28;20091;-77
2023/12/12 04:07:42;;;;;;;29.90;17.38;;;1.80;99.90;;;;;;5047976;28;20471;-78
2023/12/12 04:10:08;;;;;;;34.25;19.70;;;1.80;99.90;;;;;;5028271;28;20029;-77
2023/12/12 04:12:36;;;;;;;42.60;24.02;;;1.80;99.90;;;;;;5031762;28;20033;-76
2023/12/12 04:15:02;;;;;;;41.53;21.02;;;1.80;99.90;;;;;;5032896;28;20029;-76
2023/12/12 04:17:29;;;;;;;41.65;24.23;;;1.80;99.90;;;;;;5032067;28;20022;-78
2023/12/12 04:19:54;;;;;;;55.35;32.08;;;1.80;99.90;;;;;;5048103;28;20060;-77
2023/12/12 04:22:20;;;;;;;47.10;21.63;;;1.80;99.90;;;;;;5032510;28;20506;-77
2023/12/12 04:24:46;;;;;;;36.35;20.90;;;1.80;99.90;;;;;;5047755;28;20064;-75
2023/12/12 04:27:11;;;;;;;39.42;22.40;;;1.80;99.90;;;;;;5032636;28;20014;-77
2023/12/12 04:29:37;;;;;;;37.65;18.30;;;1.80;99.90;;;;;;5019244;28;20124;-78
2023/12/12 04:32:04;;;;;;;38.80;19.23;;;1.80;99.90;;;;;;5031721;28;20084;-77
2023/12/12 04:34:33;;;;;;;37.17;18.02;;;1.80;99.90;;;;;;5028058;28;20014;-78
2023/12/12 04:37:01;;;;;;;37.85;16.77;;;1.80;99.90;;;;;;5047410;28;20021;-77
2023/12/12 04:39:27;;;;;;;33.90;18.95;;;1.80;99.90;;;;;;5032451;28;20025;-76
2023/12/12 04:41:53;;;;;;;37.63;18.85;;;1.80;99.90;;;;;;5030864;28;20104;-76
2023/12/12 04:44:18;;;;;;;29.65;17.52;;;1.80;99.90;;;;;;5035387;28;20101;-75
2023/12/12 04:46:44;;;;;;;29.65;16.40;;;1.80;99.90;;;;;;5051662;28;20145;-77
2023/12/12 04:49:10;;;;;;;28.73;16.92;;;1.80;99.90;;;;;;5036394;28;20029;-75
2023/12/12 04:51:35;;;;;;;21.05;13.52;;;1.80;99.90;;;;;;5035801;28;20014;-75
2023/12/12 04:54:01;;;;;;;22.45;14.40;;;1.80;99.90;;;;;;5031689;28;20026;-74
2023/12/12 04:56:27;;;;;;;24.77;15.43;;;1.90;99.90;;;;;;5034957;28;20033;-76
2023/12/12 04:58:52;;;;;;;24.00;13.73;;;2.00;99.90;;;;;;5036362;28;20028;-76
2023/12/12 05:01:18;;;;;;;24.17;12.70;;;2.00;99.90;;;;;;5051543;28;20549;-74
2023/12/12 05:03:44;;;;;;;23.90;14.70;;;2.00;99.90;;;;;;5036194;28;20422;-76
2023/12/12 05:06:10;;;;;;;20.13;13.38;;;2.10;99.90;;;;;;5036051;28;20022;-77
2023/12/12 05:08:36;;;;;;;26.60;14.20;;;2.10;99.90;;;;;;5036152;28;20017;-74
2023/12/12 05:11:02;;;;;;;23.67;14.65;;;2.10;99.90;;;;;;5023612;28;20018;-74
2023/12/12 05:13:27;;;;;;;23.33;13.65;;;2.20;99.90;;;;;;5035472;28;20067;-75
2023/12/12 05:15:53;;;;;;;24.38;15.48;;;2.20;99.90;;;;;;5035828;28;20068;-75
2023/12/12 05:18:20;;;;;;;27.13;16.63;;;2.20;99.90;;;;;;5035691;28;20404;-74
2023/12/12 05:20:45;;;;;;;28.45;15.73;;;2.10;99.90;;;;;;5035830;28;20060;-75
2023/12/12 05:23:11;;;;;;;29.08;16.35;;;2.20;99.90;;;;;;5035276;28;20044;-76
2023/12/12 05:25:37;;;;;;;26.92;15.38;;;2.20;99.90;;;;;;5034399;28;20390;-75
2023/12/12 05:28:03;;;;;;;29.95;19.10;;;2.20;99.90;;;;;;5035760;28;20092;-75
2023/12/12 05:30:29;;;;;;;27.50;16.58;;;2.20;99.90;;;;;;5035556;28;20057;-74
2023/12/12 05:32:54;;;;;;;26.65;15.32;;;2.20;99.90;;;;;;5030702;28;20381;-75
2023/12/12 05:35:20;;;;;;;26.30;14.20;;;2.20;99.90;;;;;;5034974;28;20472;-74
2023/12/12 05:37:45;;;;;;;25.25;15.57;;;2.20;99.90;;;;;;5035468;28;20446;-75
2023/12/12 05:40:17;;;;;;;26.10;15.13;;;2.20;99.90;;;;;;5035590;28;20379;-75
2023/12/12 05:42:43;;;;;;;21.17;12.32;;;2.20;99.90;;;;;;5034991;28;20013;-77
2023/12/12 05:45:09;;;;;;;20.95;14.65;;;2.20;99.90;;;;;;5030845;28;20033;-77
2023/12/12 05:47:35;;;;;;;19.63;11.93;;;2.30;99.90;;;;;;5028788;28;20013;-75
2023/12/12 05:50:00;;;;;;;20.73;13.23;;;2.20;99.90;;;;;;5035421;28;20029;-74
2023/12/12 05:52:26;;;;;;;21.08;12.73;;;2.20;99.90;;;;;;5034711;28;20183;-75
2023/12/12 05:54:54;;;;;;;21.50;13.18;;;2.20;99.90;;;;;;5033058;28;20026;-74
2023/12/12 05:57:19;;;;;;;20.08;12.70;;;2.20;99.90;;;;;;5031458;28;20018;-75
2023/12/12 05:59:46;;;;;;;23.80;13.07;;;2.20;99.90;;;;;;5024815;28;20029;-76
2023/12/12 06:02:12;;;;;;;31.75;17.75;;;2.20;99.90;;;;;;5033643;28;20437;-77
2023/12/12 06:04:38;;;;;;;39.13;18.23;;;2.20;99.90;;;;;;5030170;28;20029;-77
2023/12/12 06:07:05;;;;;;;22.88;14.85;;;2.20;99.90;;;;;;5047157;28;20024;-75
2023/12/12 06:09:31;;;;;;;25.15;14.38;;;2.10;99.90;;;;;;5049908;28;20025;-75
2023/12/12 06:11:58;;;;;;;23.40;14.00;;;2.10;99.90;;;;;;5030575;28;20036;-75
2023/12/12 06:14:24;;;;;;;32.42;18.15;;;2.10;99.90;;;;;;5025080;28;20022;-75
2023/12/12 06:16:49;;;;;;;34.33;19.25;;;2.10;99.90;;;;;;5033432;28;20029;-75
2023/12/12 06:19:15;;;;;;;27.13;16.48;;;2.10;99.90;;;;;;5049491;28;20467;-74
2023/12/12 06:21:41;;;;;;;28.95;16.30;;;2.10;99.90;;;;;;5031330;28;20171;-74
2023/12/12 06:24:07;;;;;;;32.80;18.98;;;2.10;99.90;;;;;;5034395;28;20028;-76
2023/12/12 06:26:33;;;;;;;33.80;19.17;;;2.10;99.90;;;;;;5034244;28;20021;-77
2023/12/12 06:28:59;;;;;;;28.55;17.92;;;2.00;99.90;;;;;;5025225;28;20030;-75
2023/12/12 06:31:25;;;;;;;34.55;21.13;;;2.00;99.90;;;;;;5025326;28;20498;-74
2023/12/12 06:33:51;;;;;;;37.65;19.95;;;2.10;99.90;;;;;;5022744;28;20057;-74
2023/12/12 06:36:17;;;;;;;35.33;20.50;;;2.00;99.90;;;;;;5018546;28;20521;-73
2023/12/12 06:38:43;;;;;;;29.23;17.13;;;2.10;99.90;;;;;;5026584;28;20113;-74
2023/12/12 06:41:11;;;;;;;33.45;19.98;;;2.00;99.90;;;;;;5024966;28;20045;-76
2023/12/12 06:43:37;;;;;;;28.98;17.08;;;2.10;99.90;;;;;;5031179;28;20018;-74
2023/12/12 06:46:02;;;;;;;36.17;17.63;;;2.00;99.90;;;;;;5033947;28;20025;-74
2023/12/12 06:48:28;;;;;;;30.40;17.70;;;2.00;99.90;;;;;;5030824;28;20056;-74
2023/12/12 06:50:54;;;;;;;28.60;15.60;;;2.00;99.90;;;;;;5031083;28;20083;-75
2023/12/12 06:53:20;;;;;;;31.85;18.48;;;2.00;99.90;;;;;;5018851;28;20116;-75
2023/12/12 06:55:48;;;;;;;39.58;19.27;;;2.00;99.90;;;;;;5047276;28;20108;-75
2023/12/12 06:58:16;;;;;;;31.27;17.52;;;2.00;99.90;;;;;;5026931;28;20479;-75
2023/12/12 07:00:42;;;;;;;34.97;19.75;;;2.00;99.90;;;;;;5024831;28;20029;-75
2023/12/12 07:03:11;;;;;;;35.17;20.08;;;2.00;99.90;;;;;;5027283;28;20436;-74
2023/12/12 07:05:37;;;;;;;33.60;18.00;;;2.00;99.90;;;;;;5026467;28;20022;-75
2023/12/12 07:08:04;;;;;;;29.88;17.85;;;2.00;99.90;;;;;;5033789;28;20017;-74
2023/12/12 07:10:31;;;;;;;32.92;18.95;;;2.00;99.90;;;;;;5033609;28;20025;-74
2023/12/12 07:12:57;;;;;;;33.50;19.05;;;2.00;99.90;;;;;;5029067;28;20492;-77
2023/12/12 07:15:23;;;;;;;40.92;21.65;;;2.00;99.90;;;;;;5029144;28;20033;-77
2023/12/12 07:17:49;;;;;;;43.63;23.77;;;2.00;99.90;;;;;;5023890;28;20509;-77
2023/12/12 07:20:15;;;;;;;42.25;24.10;;;2.10;99.90;;;;;;5028306;28;20055;-77
2023/12/12 07:22:41;;;;;;;44.22;23.95;;;2.10;99.90;;;;;;5032573;28;20408;-77
2023/12/12 07:25:08;;;;;;;37.10;22.23;;;2.10;99.90;;;;;;5033189;28;20037;-75
2023/12/12 07:27:33;;;;;;;35.63;22.20;;;2.10;99.90;;;;;;5048695;28;20025;-75
2023/12/12 07:29:59;;;;;;;37.97;21.80;;;2.20;99.90;;;;;;5033202;28;20078;-77
2023/12/12 07:32:26;;;;;;;42.00;22.27;;;2.20;99.90;;;;;;5028596;28;20057;-75
2023/12/12 07:34:53;;;;;;;38.08;20.85;;;2.20;99.90;;;;;;5029074;28;20103;-75
2023/12/12 07:37:19;;;;;;;54.92;23.70;;;2.10;99.90;;;;;;5032522;28;20026;-77
2023/12/12 07:39:44;;;;;;;38.55;21.45;;;2.10;99.90;;;;;;5028464;28;20014;-75
2023/12/12 07:42:10;;;;;;;40.88;22.33;;;2.10;99.90;;;;;;5022578;28;20108;-75
2023/12/12 07:44:36;;;;;;;37.47;20.05;;;2.10;99.90;;;;;;5033043;28;20036;-76
2023/12/12 07:47:02;;;;;;;34.78;20.58;;;2.10;99.90;;;;;;5032249;28;20033;-75
2023/12/12 07:49:28;;;;;;;39.13;22.88;;;2.00;99.90;;;;;;5032870;28;20075;-75
2023/12/12 07:51:54;;;;;;;45.03;21.92;;;2.00;99.90;;;;;;5027507;28;20391;-75
2023/12/12 07:54:20;;;;;;;43.22;22.00;;;2.00;99.90;;;;;;5027130;28;20029;-74
2023/12/12 07:56:46;;;;;;;41.03;20.60;;;2.00;99.90;;;;;;5032917;28;20075;-78
2023/12/12 07:59:11;;;;;;;39.70;21.95;;;2.00;99.90;;;;;;5032830;28;20463;-74
2023/12/12 08:01:39;;;;;;;48.05;21.65;;;2.00;99.90;;;;;;5030357;28;20056;-75
2023/12/12 08:04:05;;;;;;;38.10;22.38;;;2.00;99.90;;;;;;5032086;28;20514;-75
2023/12/12 08:06:31;;;;;;;46.20;22.38;;;2.10;99.90;;;;;;5029034;28;20087;-75
2023/12/12 08:08:57;;;;;;;42.13;22.83;;;2.10;99.90;;;;;;5028759;28;20021;-75
2023/12/12 08:11:24;;;;;;;45.03;22.13;;;2.10;99.90;;;;;;5023077;28;20387;-78
2023/12/12 08:13:50;;;;;;;44.05;25.55;;;2.20;99.90;;;;;;5031185;28;20387;-78
2023/12/12 08:16:16;;;;;;;44.85;22.98;;;2.20;99.90;;;;;;5027968;28;20026;-75
2023/12/12 08:18:41;;;;;;;47.67;27.88;;;2.20;99.90;;;;;;5030214;28;20474;-75
2023/12/12 08:21:09;;;;;;;52.15;25.75;;;2.30;99.90;;;;;;5031159;28;20387;-74
2023/12/12 08:23:37;;;;;;;41.17;23.55;;;2.30;99.90;;;;;;5032418;28;20029;-74
2023/12/12 08:26:05;;;;;;;48.17;25.38;;;2.40;99.90;;;;;;5032729;28;20021;-75
2023/12/12 08:28:31;;;;;;;46.83;26.88;;;2.40;99.90;;;;;;5047618;28;20025;-78
2023/12/12 08:30:56;;;;;;;49.75;28.63;;;2.40;99.90;;;;;;5030603;28;20026;-78
2023/12/12 08:33:23;;;;;;;53.83;27.65;;;2.40;99.90;;;;;;5032302;28;20107;-78
2023/12/12 08:35:49;;;;;;;52.50;30.52;;;2.40;99.90;;;;;;5027798;28;20068;-75
2023/12/12 08:38:15;;;;;;;45.58;25.27;;;2.50;99.90;;;;;;5026905;28;20033;-78
2023/12/12 08:40:40;;;;;;;53.72;29.75;;;2.50;99.90;;;;;;5032182;28;20022;-75
2023/12/12 08:43:06;;;;;;;47.25;26.90;;;2.50;99.90;;;;;;5032392;28;20026;-75
2023/12/12 08:45:32;;;;;;;50.25;29.25;;;2.60;99.90;;;;;;5030672;28;20029;-78
2023/12/12 08:47:58;;;;;;;54.70;29.05;;;2.70;99.90;;;;;;5020581;28;20109;-78
2023/12/12 08:50:24;;;;;;;54.05;29.92;;;2.70;99.90;;;;;;5029925;28;20101;-78
2023/12/12 08:52:49;;;;;;;58.40;27.52;;;2.70;99.90;;;;;;5030435;28;20036;-78
2023/12/12 08:55:15;;;;;;;53.58;26.27;;;2.70;99.90;;;;;;5030390;28;20097;-75
2023/12/12 08:57:40;;;;;;;48.90;27.58;;;2.80;99.90;;;;;;5030333;28;20026;-75
2023/12/12 09:00:12;;;;;;;48.38;26.55;;;2.80;99.90;;;;;;5045469;28;20668;-78
2023/12/12 09:02:39;;;;;;;57.53;29.05;;;2.80;99.90;;;;;;5031648;28;20053;-78
2023/12/12 09:05:06;;;;;;;66.50;33.42;;;2.90;99.90;;;;;;5027669;28;20472;-78
2023/12/12 09:07:33;;;;;;;68.82;37.22;;;2.90;99.90;;;;;;5030006;28;20425;-78
2023/12/12 09:10:00;;;;;;;51.35;26.05;;;3.00;99.90;;;;;;5032208;28;20059;-78
2023/12/12 09:12:26;;;;;;;63.00;30.52;;;3.00;99.90;;;;;;5031933;28;20081;-75
2023/12/12 09:14:51;;;;;;;60.22;32.17;;;3.00;99.90;;;;;;5031961;28;20053;-78
2023/12/12 09:17:17;;;;;;;70.47;32.90;;;3.10;99.90;;;;;;5031997;28;20152;-78
2023/12/12 09:19:43;;;;;;;81.20;38.92;;;3.10;99.90;;;;;;5032185;28;20025;-75
2023/12/12 09:22:08;;;;;;;86.32;39.65;;;3.10;99.90;;;;;;5031777;28;20072;-75
2023/12/12 09:24:34;;;;;;;52.42;26.77;;;3.20;99.90;;;;;;5032060;28;20027;-78
2023/12/12 09:27:00;;;;;;;56.78;31.52;;;3.20;99.90;;;;;;5027382;28;20020;-75
2023/12/12 09:29:25;;;;;;;56.60;30.25;;;3.30;99.90;;;;;;5025590;28;20025;-78
2023/12/12 09:31:51;;;;;;;45.47;24.02;;;3.20;99.90;;;;;;5035076;28;20442;-75
2023/12/12 09:34:17;;;;;;;48.35;27.20;;;3.30;99.90;;;;;;5035577;28;20441;-79
2023/12/12 09:36:42;;;;;;;39.40;22.08;;;3.30;99.90;;;;;;5035278;28;20166;-78
2023/12/12 09:39:10;;;;;;;37.03;21.25;;;3.30;99.90;;;;;;5035650;28;20489;-78
2023/12/12 09:41:36;;;;;;;32.30;17.52;;;3.30;99.90;;;;;;5035146;28;20017;-78
2023/12/12 09:44:03;;;;;;;39.17;21.95;;;3.40;99.90;;;;;;5030947;28;20116;-75
2023/12/12 09:46:30;;;;;;;36.85;19.80;;;3.40;99.90;;;;;;5033333;28;20048;-75
2023/12/12 09:48:58;;;;;;;38.92;23.52;;;3.50;99.90;;;;;;5035387;28;20548;-78
2023/12/12 09:51:25;;;;;;;33.17;16.92;;;3.50;99.90;;;;;;5034990;28;20483;-75
2023/12/12 09:53:51;;;;;;;37.13;20.08;;;3.60;99.90;;;;;;5030706;28;20045;-75
2023/12/12 09:56:17;;;;;;;28.33;15.93;;;3.60;99.90;;;;;;5049519;28;20018;-75
2023/12/12 09:58:49;;;;;;;22.92;12.80;;;3.70;99.90;;;;;;5035324;28;20025;-78
2023/12/12 10:01:15;;;;;;;23.95;13.32;;;3.70;99.90;;;;;;5034595;28;20040;-78
2023/12/12 10:03:41;;;;;;;22.10;12.23;;;3.70;99.90;;;;;;5030815;28;20037;-75
2023/12/12 10:06:12;;;;;;;20.95;12.88;;;3.70;99.90;;;;;;5020856;28;20025;-76
2023/12/12 10:08:39;;;;;;;23.10;14.55;;;3.80;99.90;;;;;;5025197;28;20025;-75
2023/12/12 10:11:07;;;;;;;24.30;13.73;;;3.70;99.90;;;;;;5030397;28;20025;-79
2023/12/12 10:13:47;;;;;;;23.60;14.93;;;3.70;99.90;;;;;;5029549;28;20065;-79
2023/12/12 10:16:13;;;;;;;27.15;15.77;;;3.70;99.90;;;;;;5034690;28;20479;-75
2023/12/12 10:18:39;;;;;;;23.63;16.52;;;3.80;99.90;;;;;;5032432;28;20447;-75
2023/12/12 10:21:18;;;;;;;33.40;18.15;;;3.80;99.90;;;;;;5015069;28;20105;-75
2023/12/12 10:23:47;;;;;;;25.83;18.00;;;3.80;99.90;;;;;;5031841;28;20098;-78
2023/12/12 10:26:29;;;;;;;31.55;18.10;;;3.90;99.90;;;;;;5029910;28;20047;-79
2023/12/12 10:28:57;;;;;;;32.33;18.25;;;3.90;99.90;;;;;;5034498;28;20104;-74
2023/12/12 10:31:23;;;;;;;31.60;17.33;;;3.90;99.90;;;;;;5034125;28;20021;-78
2023/12/12 10:33:54;;;;;;;30.25;18.88;;;4.00;99.90;;;;;;5034510;28;20395;-78
2023/12/12 10:36:21;;;;;;;34.35;18.70;;;4.00;99.90;;;;;;5030648;28;20014;-76
2023/12/12 10:38:46;;;;;;;34.47;18.73;;;4.00;99.90;;;;;;5033189;28;20026;-75
2023/12/12 10:41:19;;;;;;;33.95;19.70;;;4.00;99.90;;;;;;5033162;28;20028;-75
2023/12/12 10:43:45;;;;;;;;;;;4.00;99.90;;;;;;5032312;28;20110;-75
2023/12/12 10:46:12;;;;;;;42.95;24.02;;;4.00;99.90;;;;;;5034078;28;19932;-74
2023/12/12 10:48:43;;;;;;;38.65;23.27;;;4.10;99.90;;;;;;5034203;28;20025;-75
2023/12/12 10:51:10;;;;;;;40.53;24.30;;;4.10;99.90;;;;;;5034264;28;20101;-78
2023/12/12 10:53:37;;;;;;;36.45;21.33;;;4.20;99.90;;;;;;5034023;28;20040;-75
2023/12/12 10:56:04;;;;;;;30.63;19.67;;;4.20;99.90;;;;;;5033877;28;20037;-75
2023/12/12 10:58:31;;;;;;;34.42;21.15;;;4.20;99.90;;;;;;5033778;28;20378;-78
2023/12/12 11:00:58;;;;;;;29.60;18.83;;;4.20;99.90;;;;;;5028952;28;20415;-74
2023/12/12 11:03:24;;;;;;;27.05;16.55;;;4.20;99.90;;;;;;5030933;28;20109;-78
2023/12/12 11:05:51;;;;;;;26.92;15.82;;;4.20;99.90;;;;;;5022131;28;20112;-78
2023/12/12 11:08:18;;;;;;;25.23;15.52;;;4.10;99.90;;;;;;5031291;28;20022;-75
2023/12/12 11:10:46;;;;;;;25.95;14.93;;;4.10;99.90;;;;;;5028671;28;20024;-75
2023/12/12 11:13:15;;;;;;;22.58;13.88;;;4.10;99.90;;;;;;5029859;28;20029;-74
2023/12/12 11:15:42;;;;;;;21.58;11.88;;;4.00;99.90;;;;;;5028571;28;20026;-75
2023/12/12 11:18:09;;;;;;;19.30;11.75;;;3.90;99.90;;;;;;5039899;28;20037;-75
2023/12/12 11:20:40;;;;;;;21.17;12.18;;;3.90;99.90;;;;;;5030665;28;20018;-75
2023/12/12 11:23:07;;;;;;;20.10;12.18;;;3.90;99.90;;;;;;5029782;28;20558;-75
2023/12/12 11:25:37;;;;;;;22.40;13.40;;;3.80;99.90;;;;;;5030595;28;20038;-75
2023/12/12 11:28:04;;;;;;;19.77;11.70;;;3.80;99.90;;;;;;5029677;28;20049;-75
2023/12/12 11:30:37;;;;;;;24.95;15.25;;;3.80;99.90;;;;;;5018466;28;20423;-75
2023/12/12 11:33:06;;;;;;;20.67;12.65;;;3.70;99.90;;;;;;5024811;28;20064;-75
2023/12/12 11:35:33;;;;;;;23.67;14.95;;;3.70;99.90;;;;;;5030513;28;20032;-75
2023/12/12 11:38:28;;;;;;;29.58;14.50;;;3.70;99.90;;;;;;5023748;28;20347;-75
2023/12/12 11:41:10;;;;;;;27.08;16.52;;;3.70;99.90;;;;;;5031658;28;20120;-75
2023/12/12 11:43:36;;;;;;;75.97;58.25;;;3.70;99.90;;;;;;5013560;28;20387;-75
2023/12/12 11:46:21;;;;;;;120.07;91.07;;;3.70;99.90;;;;;;5023770;28;20040;-74
2023/12/12 11:48:47;;;;;;;43.53;25.80;;;3.80;99.90;;;;;;5023159;28;20037;-75
2023/12/12 11:51:35;;;;;;;211.25;140.07;;;3.80;99.90;;;;;;5011455;28;20057;-75
2023/12/12 11:54:06;;;;;;;130.43;92.05;;;3.80;99.90;;;;;;5023042;28;20033;-74
2023/12/12 11:56:33;;;;;;;156.95;103.25;;;3.80;99.90;;;;;;5016924;28;20034;-75
2023/12/12 11:59:01;;;;;;;81.90;40.95;;;3.80;99.90;;;;;;5031129;28;20024;-76
2023/12/12 12:01:27;;;;;;;55.35;28.35;;;3.90;99.90;;;;;;5030938;28;20391;-75
2023/12/12 12:03:53;;;;;;;46.10;28.63;;;3.90;99.90;;;;;;5016634;28;20021;-75
2023/12/12 12:06:20;;;;;;;74.78;45.45;;;3.90;99.90;;;;;;5040964;28;20550;-76
2023/12/12 12:08:46;;;;;;;133.93;55.75;;;3.90;99.90;;;;;;5019232;28;20029;-75
2023/12/12 12:11:12;;;;;;;93.10;41.33;;;3.90;99.90;;;;;;5022489;28;20764;-77
2023/12/12 12:13:42;;;;;;;69.82;38.42;;;3.90;99.90;;;;;;5029678;28;20056;-76
2023/12/12 12:16:08;;;;;;;57.60;33.90;;;4.00;99.90;;;;;;5024195;28;20049;-75
2023/12/12 12:18:35;;;;;;;121.75;55.60;;;4.00;99.90;;;;;;5027465;28;20028;-76
2023/12/12 12:21:03;;;;;;;83.20;37.28;;;3.90;99.90;;;;;;5026706;28;20484;-75
2023/12/12 12:23:36;;;;;;;73.50;42.92;;;3.90;99.90;;;;;;5024037;28;20475;-75
2023/12/12 12:26:02;;;;;;;63.15;32.92;;;3.90;99.90;;;;;;5012565;28;20046;-75
2023/12/12 12:28:32;;;;;;;82.15;40.08;;;3.90;99.90;;;;;;5026985;28;20079;-75
2023/12/12 12:30:59;;;;;;;80.93;40.35;;;3.90;99.90;;;;;;5028368;28;20411;-76
2023/12/12 12:33:38;;;;;;;65.47;41.05;;;3.90;99.90;;;;;;5029559;28;20057;-75